sensor_id;sensor_type;location;lat;lon;timestamp;pressure;altitude;pressure_sealevel;temperature;humidity
57114;BME280;42994;51.606;9.988;2022-11-04T00:01:27;97625.13;;;9.39;100.00
57114;BME280;42994;51.606;9.988;2022-11-04T00:03:54;97625.03;;;9.53;100.00
57114;BME280;42994;51.606;9.988;2022-11-04T00:06:21;97624.84;;;9.48;100.00
57114;BME280;42994;51.606;9.988;2022-11-04T00:08:50;97617.91;;;9.65;100.00
57114;BME280;42994;51.606;9.988;2022-11-04T00:11:17;97613.19;;;9.86;100.00
57114;BME280;42994;51.606;9.988;2022-11-04T00:14:01;97626.59;;;9.86;100.00
57114;BME280;42994;51.606;9.988;2022-11-04T00:16:28;97622.44;;;9.65;100.00
57114;BME280;42994;51.606;9.988;2022-11-04T00:19:12;97624.91;;;9.66;100.00
57114;BME280;42994;51.606;9.988;2022-11-04T00:21:39;97621.63;;;9.64;100.00
57114;BME280;42994;51.606;9.988;2022-11-04T00:24:24;97639.84;;;9.74;100.00
57114;BME280;42994;51.606;9.988;2022-11-04T00:27:09;97634.44;;;9.80;100.00
57114;BME280;42994;51.606;9.988;2022-11-04T00:29:54;97635.16;;;9.69;100.00
57114;BME280;42994;51.606;9.988;2022-11-04T00:32:21;97640.84;;;10.16;100.00
57114;BME280;42994;51.606;9.988;2022-11-04T00:35:05;97638.53;;;10.01;100.00
57114;BME280;42994;51.606;9.988;2022-11-04T00:37:36;97641.59;;;9.87;100.00
57114;BME280;42994;51.606;9.988;2022-11-04T00:40:05;97642.50;;;9.99;100.00
57114;BME280;42994;51.606;9.988;2022-11-04T00:42:32;97634.91;;;9.96;100.00
57114;BME280;42994;51.606;9.988;2022-11-04T00:44:59;97646.19;;;9.79;100.00
57114;BME280;42994;51.606;9.988;2022-11-04T00:47:26;97644.38;;;9.98;100.00
57114;BME280;42994;51.606;9.988;2022-11-04T00:49:52;97642.78;;;10.09;100.00
57114;BME280;42994;51.606;9.988;2022-11-04T00:52:20;97645.94;;;10.06;100.00
57114;BME280;42994;51.606;9.988;2022-11-04T00:54:47;97651.13;;;10.19;100.00
57114;BME280;42994;51.606;9.988;2022-11-04T00:57:15;97653.81;;;10.01;100.00
57114;BME280;42994;51.606;9.988;2022-11-04T00:59:42;97655.38;;;10.09;100.00
57114;BME280;42994;51.606;9.988;2022-11-04T01:02:10;97655.38;;;10.09;100.00
57114;BME280;42994;51.606;9.988;2022-11-04T01:04:37;97656.78;;;10.11;100.00
57114;BME280;42994;51.606;9.988;2022-11-04T01:07:04;97660.19;;;10.00;100.00
57114;BME280;42994;51.606;9.988;2022-11-04T01:09:31;97668.22;;;10.00;100.00
57114;BME280;42994;51.606;9.988;2022-11-04T01:11:58;97672.00;;;9.92;100.00
57114;BME280;42994;51.606;9.988;2022-11-04T01:14:26;97687.19;;;9.98;100.00
57114;BME280;42994;51.606;9.988;2022-11-04T01:16:53;97684.72;;;9.97;100.00
57114;BME280;42994;51.606;9.988;2022-11-04T01:19:20;97689.72;;;9.93;100.00
57114;BME280;42994;51.606;9.988;2022-11-04T01:21:49;97693.84;;;9.89;100.00
57114;BME280;42994;51.606;9.988;2022-11-04T01:24:16;97699.88;;;9.85;100.00
57114;BME280;42994;51.606;9.988;2022-11-04T01:26:44;97697.56;;;9.88;100.00
57114;BME280;42994;51.606;9.988;2022-11-04T01:29:11;97700.47;;;9.87;100.00
57114;BME280;42994;51.606;9.988;2022-11-04T01:31:39;97697.56;;;9.88;100.00
57114;BME280;42994;51.606;9.988;2022-11-04T01:34:08;97702.31;;;9.86;100.00
57114;BME280;42994;51.606;9.988;2022-11-04T01:36:35;97706.88;;;9.86;100.00
57114;BME280;42994;51.606;9.988;2022-11-04T01:39:03;97720.25;;;9.86;100.00
57114;BME280;42994;51.606;9.988;2022-11-04T01:41:32;97710.34;;;9.86;100.00
57114;BME280;42994;51.606;9.988;2022-11-04T01:44:01;97714.91;;;9.86;100.00
57114;BME280;42994;51.606;9.988;2022-11-04T01:46:33;97714.72;;;9.80;100.00
57114;BME280;42994;51.606;9.988;2022-11-04T01:49:10;97721.09;;;9.79;100.00
57114;BME280;42994;51.606;9.988;2022-11-04T01:51:43;97719.69;;;9.77;100.00
57114;BME280;42994;51.606;9.988;2022-11-04T01:54:12;97720.69;;;9.82;100.00
57114;BME280;42994;51.606;9.988;2022-11-04T01:56:41;97715.94;;;9.85;100.00
57114;BME280;42994;51.606;9.988;2022-11-04T01:59:12;97716.75;;;9.85;100.00
57114;BME280;42994;51.606;9.988;2022-11-04T02:01:42;97705.06;;;9.79;100.00
57114;BME280;42994;51.606;9.988;2022-11-04T02:04:12;97695.16;;;9.80;100.00
57114;BME280;42994;51.606;9.988;2022-11-04T02:06:53;97698.06;;;9.78;100.00
57114;BME280;42994;51.606;9.988;2022-11-04T02:09:21;97687.59;;;9.77;100.00
57114;BME280;42994;51.606;9.988;2022-11-04T02:11:50;97684.91;;;9.77;100.00
57114;BME280;42994;51.606;9.988;2022-11-04T02:14:35;97687.81;;;9.75;100.00
57114;BME280;42994;51.606;9.988;2022-11-04T02:17:11;97680.59;;;9.76;100.00
57114;BME280;42994;51.606;9.988;2022-11-04T02:20:00;97680.81;;;9.74;100.00
57114;BME280;42994;51.606;9.988;2022-11-04T02:22:51;97691.06;;;9.77;100.00
57114;BME280;42994;51.606;9.988;2022-11-04T02:25:41;97678.28;;;9.79;100.00
57114;BME280;42994;51.606;9.988;2022-11-04T02:28:33;97675.22;;;9.76;100.00
57114;BME280;42994;51.606;9.988;2022-11-04T02:31:13;97678.13;;;9.74;100.00
57114;BME280;42994;51.606;9.988;2022-11-04T02:33:46;97682.72;;;9.67;100.00
57114;BME280;42994;51.606;9.988;2022-11-04T02:36:26;97677.47;;;9.79;100.00
57114;BME280;42994;51.606;9.988;2022-11-04T02:39:04;97675.41;;;9.81;100.00
57114;BME280;42994;51.606;9.988;2022-11-04T02:41:38;97686.75;;;9.76;100.00
57114;BME280;42994;51.606;9.988;2022-11-04T02:44:14;97688.81;;;9.74;100.00
57114;BME280;42994;51.606;9.988;2022-11-04T02:46:47;97685.28;;;9.80;100.00
57114;BME280;42994;51.606;9.988;2022-11-04T02:49:19;97693.31;;;9.80;100.00
57114;BME280;42994;51.606;9.988;2022-11-04T02:51:54;97708.31;;;9.81;100.00
57114;BME280;42994;51.606;9.988;2022-11-04T02:54:27;97711.22;;;9.80;100.00
57114;BME280;42994;51.606;9.988;2022-11-04T02:56:58;97716.94;;;9.84;100.00
57114;BME280;42994;51.606;9.988;2022-11-04T02:59:32;97726.81;;;9.90;100.00
57114;BME280;42994;51.606;9.988;2022-11-04T03:02:06;97721.44;;;9.90;100.00
57114;BME280;42994;51.606;9.988;2022-11-04T03:04:37;97743.03;;;9.95;100.00
57114;BME280;42994;51.606;9.988;2022-11-04T03:07:08;97750.88;;;9.90;100.00
57114;BME280;42994;51.606;9.988;2022-11-04T03:09:37;97769.66;;;9.83;100.00
57114;BME280;42994;51.606;9.988;2022-11-04T03:12:08;97768.44;;;9.86;100.00
57114;BME280;42994;51.606;9.988;2022-11-04T03:14:42;97777.81;;;9.95;100.00
57114;BME280;42994;51.606;9.988;2022-11-04T03:17:16;97790.59;;;9.93;100.00
57114;BME280;42994;51.606;9.988;2022-11-04T03:19:51;97781.94;;;9.91;100.00
57114;BME280;42994;51.606;9.988;2022-11-04T03:22:21;97790.19;;;9.89;100.00
57114;BME280;42994;51.606;9.988;2022-11-04T03:24:49;97795.19;;;9.86;100.00
57114;BME280;42994;51.606;9.988;2022-11-04T03:27:22;97793.97;;;9.81;100.00
57114;BME280;42994;51.606;9.988;2022-11-04T03:29:55;97793.16;;;9.81;100.00
57114;BME280;42994;51.606;9.988;2022-11-04T03:32:34;97800.19;;;9.75;100.00
57114;BME280;42994;51.606;9.988;2022-11-04T03:35:05;97800.59;;;9.79;100.00
57114;BME280;42994;51.606;9.988;2022-11-04T03:37:32;97803.50;;;9.71;100.00
57114;BME280;42994;51.606;9.988;2022-11-04T03:40:00;97810.94;;;9.69;100.00
57114;BME280;42994;51.606;9.988;2022-11-04T03:42:29;97810.53;;;9.65;100.00
57114;BME280;42994;51.606;9.988;2022-11-04T03:44:57;97822.50;;;9.62;100.00
57114;BME280;42994;51.606;9.988;2022-11-04T03:47:29;97825.16;;;9.69;100.00
57114;BME280;42994;51.606;9.988;2022-11-04T03:50:00;97816.75;;;9.59;100.00
57114;BME280;42994;51.606;9.988;2022-11-04T03:52:28;97813.91;;;9.54;100.00
57114;BME280;42994;51.606;9.988;2022-11-04T03:54:54;97808.75;;;9.52;100.00
57114;BME280;42994;51.606;9.988;2022-11-04T03:57:33;97816.19;;;9.50;100.00
57114;BME280;42994;51.606;9.988;2022-11-04T04:00:05;97819.06;;;9.49;100.00
57114;BME280;42994;51.606;9.988;2022-11-04T04:02:45;97821.13;;;9.47;100.00
57114;BME280;42994;51.606;9.988;2022-11-04T04:05:19;97828.38;;;9.39;100.00
57114;BME280;42994;51.606;9.988;2022-11-04T04:07:51;97828.81;;;9.36;100.00
57114;BME280;42994;51.606;9.988;2022-11-04T04:10:25;97836.06;;;9.29;100.00
57114;BME280;42994;51.606;9.988;2022-11-04T04:13:13;97826.59;;;9.27;100.00
57114;BME280;42994;51.606;9.988;2022-11-04T04:15:46;97833.38;;;9.29;100.00
57114;BME280;42994;51.606;9.988;2022-11-04T04:18:19;97844.91;;;9.23;100.00
57114;BME280;42994;51.606;9.988;2022-11-04T04:20:52;97842.44;;;9.21;100.00
57114;BME280;42994;51.606;9.988;2022-11-04T04:23:22;97850.25;;;9.23;100.00
57114;BME280;42994;51.606;9.988;2022-11-04T04:26:10;97843.50;;;9.14;100.00
57114;BME280;42994;51.606;9.988;2022-11-04T04:28:58;97841.63;;;9.14;100.00
57114;BME280;42994;51.606;9.988;2022-11-04T04:31:27;97857.47;;;9.16;100.00
57114;BME280;42994;51.606;9.988;2022-11-04T04:34:15;97862.59;;;9.24;100.00
57114;BME280;42994;51.606;9.988;2022-11-04T04:36:45;97866.72;;;9.20;100.00
57114;BME280;42994;51.606;9.988;2022-11-04T04:39:16;97872.09;;;9.20;100.00
57114;BME280;42994;51.606;9.988;2022-11-04T04:42:01;97866.09;;;9.18;100.00
57114;BME280;42994;51.606;9.988;2022-11-04T04:44:46;97873.50;;;9.16;100.00
57114;BME280;42994;51.606;9.988;2022-11-04T04:47:28;97862.22;;;9.07;100.00
57114;BME280;42994;51.606;9.988;2022-11-04T04:49:59;97855.66;;;9.03;100.00
57114;BME280;42994;51.606;9.988;2022-11-04T04:52:30;97869.06;;;8.90;100.00
57114;BME280;42994;51.606;9.988;2022-11-04T04:54:57;97868.66;;;8.86;100.00
57114;BME280;42994;51.606;9.988;2022-11-04T04:57:24;97863.72;;;8.83;100.00
57114;BME280;42994;51.606;9.988;2022-11-04T04:59:51;97856.75;;;8.75;100.00
57114;BME280;42994;51.606;9.988;2022-11-04T05:02:17;97857.38;;;8.77;100.00
57114;BME280;42994;51.606;9.988;2022-11-04T05:04:44;97863.94;;;8.81;100.00
57114;BME280;42994;51.606;9.988;2022-11-04T05:07:12;97864.13;;;8.87;100.00
57114;BME280;42994;51.606;9.988;2022-11-04T05:09:39;97859.44;;;8.75;100.00
57114;BME280;42994;51.606;9.988;2022-11-04T05:12:06;97863.56;;;8.71;100.00
57114;BME280;42994;51.606;9.988;2022-11-04T05:14:34;97860.25;;;8.76;100.00
57114;BME280;42994;51.606;9.988;2022-11-04T05:17:01;97854.91;;;8.76;100.00
57114;BME280;42994;51.606;9.988;2022-11-04T05:19:28;97867.66;;;8.60;100.00
57114;BME280;42994;51.606;9.988;2022-11-04T05:21:55;97871.38;;;8.66;100.00
57114;BME280;42994;51.606;9.988;2022-11-04T05:24:23;97877.53;;;8.66;100.00
57114;BME280;42994;51.606;9.988;2022-11-04T05:26:50;97877.94;;;8.63;100.00
57114;BME280;42994;51.606;9.988;2022-11-04T05:29:16;97875.06;;;8.58;100.00
57114;BME280;42994;51.606;9.988;2022-11-04T05:31:43;97873.22;;;8.59;100.00
57114;BME280;42994;51.606;9.988;2022-11-04T05:34:10;97881.22;;;8.52;100.00
57114;BME280;42994;51.606;9.988;2022-11-04T05:36:37;97898.09;;;8.53;100.00
57114;BME280;42994;51.606;9.988;2022-11-04T05:39:04;97919.25;;;8.48;100.00
57114;BME280;42994;51.606;9.988;2022-11-04T05:41:33;97932.59;;;8.48;100.00
57114;BME280;42994;51.606;9.988;2022-11-04T05:44:01;97921.91;;;8.48;100.00
57114;BME280;42994;51.606;9.988;2022-11-04T05:46:28;97918.59;;;8.39;100.00
57114;BME280;42994;51.606;9.988;2022-11-04T05:48:55;97922.06;;;8.39;100.00
57114;BME280;42994;51.606;9.988;2022-11-04T05:51:24;97912.81;;;8.28;100.00
57114;BME280;42994;51.606;9.988;2022-11-04T05:53:51;97933.75;;;8.12;100.00
57114;BME280;42994;51.606;9.988;2022-11-04T05:56:18;97936.25;;;8.20;100.00
57114;BME280;42994;51.606;9.988;2022-11-04T05:58:46;97942.59;;;8.19;100.00
57114;BME280;42994;51.606;9.988;2022-11-04T06:01:22;97953.47;;;8.11;100.00
57114;BME280;42994;51.606;9.988;2022-11-04T06:03:49;97971.94;;;8.19;100.00
57114;BME280;42994;51.606;9.988;2022-11-04T06:06:16;97981.63;;;8.20;100.00
57114;BME280;42994;51.606;9.988;2022-11-04T06:08:43;97970.75;;;8.28;100.00
57114;BME280;42994;51.606;9.988;2022-11-04T06:11:09;97977.94;;;8.27;100.00
57114;BME280;42994;51.606;9.988;2022-11-04T06:13:36;97995.78;;;8.20;100.00
57114;BME280;42994;51.606;9.988;2022-11-04T06:16:04;98002.34;;;8.24;100.00
57114;BME280;42994;51.606;9.988;2022-11-04T06:18:31;98002.59;;;8.30;100.00
57114;BME280;42994;51.606;9.988;2022-11-04T06:21:20;97995.59;;;8.22;100.00
57114;BME280;42994;51.606;9.988;2022-11-04T06:23:47;98002.78;;;8.21;100.00
57114;BME280;42994;51.606;9.988;2022-11-04T06:26:14;98008.91;;;8.15;100.00
57114;BME280;42994;51.606;9.988;2022-11-04T06:28:41;98004.41;;;8.22;100.00
57114;BME280;42994;51.606;9.988;2022-11-04T06:31:11;98011.19;;;8.25;100.00
57114;BME280;42994;51.606;9.988;2022-11-04T06:33:38;98010.78;;;8.21;100.00
57114;BME280;42994;51.606;9.988;2022-11-04T06:36:06;98004.03;;;8.25;100.00
57114;BME280;42994;51.606;9.988;2022-11-04T06:38:34;97996.19;;;8.17;100.00
57114;BME280;42994;51.606;9.988;2022-11-04T06:41:02;97990.84;;;8.17;100.00
57114;BME280;42994;51.606;9.988;2022-11-04T06:43:29;98008.13;;;8.21;100.00
57114;BME280;42994;51.606;9.988;2022-11-04T06:45:57;98002.13;;;8.19;100.00
57114;BME280;42994;51.606;9.988;2022-11-04T06:48:26;98008.50;;;8.18;100.00
57114;BME280;42994;51.606;9.988;2022-11-04T06:50:55;98004.81;;;8.19;100.00
57114;BME280;42994;51.606;9.988;2022-11-04T06:53:22;97996.41;;;8.22;100.00
57114;BME280;42994;51.606;9.988;2022-11-04T06:55:49;97992.09;;;8.21;100.00
57114;BME280;42994;51.606;9.988;2022-11-04T06:58:16;97999.88;;;8.23;100.00
57114;BME280;42994;51.606;9.988;2022-11-04T07:00:49;98010.38;;;8.24;100.00
57114;BME280;42994;51.606;9.988;2022-11-04T07:03:16;98012.22;;;8.24;100.00
57114;BME280;42994;51.606;9.988;2022-11-04T07:05:44;98013.03;;;8.24;100.00
57114;BME280;42994;51.606;9.988;2022-11-04T07:08:11;98018.19;;;8.26;100.00
57114;BME280;42994;51.606;9.988;2022-11-04T07:10:38;98026.56;;;8.23;100.00
57114;BME280;42994;51.606;9.988;2022-11-04T07:13:04;98031.91;;;8.23;100.00
57114;BME280;42994;51.606;9.988;2022-11-04T07:15:31;98033.38;;;8.25;100.00
57114;BME280;42994;51.606;9.988;2022-11-04T07:17:58;98038.50;;;8.20;100.00
57114;BME280;42994;51.606;9.988;2022-11-04T07:20:25;98036.44;;;8.22;100.00
57114;BME280;42994;51.606;9.988;2022-11-04T07:22:54;98039.72;;;8.24;100.00
57114;BME280;42994;51.606;9.988;2022-11-04T07:25:20;98036.06;;;8.25;100.00
57114;BME280;42994;51.606;9.988;2022-11-04T07:27:47;98038.31;;;8.22;100.00
57114;BME280;42994;51.606;9.988;2022-11-04T07:30:14;98032.75;;;8.23;100.00
57114;BME280;42994;51.606;9.988;2022-11-04T07:32:40;98038.09;;;8.23;100.00
57114;BME280;42994;51.606;9.988;2022-11-04T07:35:08;98054.13;;;8.23;100.00
57114;BME280;42994;51.606;9.988;2022-11-04T07:37:34;98057.41;;;8.25;100.00
57114;BME280;42994;51.606;9.988;2022-11-04T07:40:03;98054.75;;;8.25;100.00
57114;BME280;42994;51.606;9.988;2022-11-04T07:42:30;98059.03;;;8.26;100.00
57114;BME280;42994;51.606;9.988;2022-11-04T07:45:04;98061.31;;;8.30;100.00
57114;BME280;42994;51.606;9.988;2022-11-04T07:47:31;98070.56;;;8.27;100.00
57114;BME280;42994;51.606;9.988;2022-11-04T07:49:58;98074.28;;;8.33;100.00
57114;BME280;42994;51.606;9.988;2022-11-04T07:52:24;98073.84;;;8.29;100.00
57114;BME280;42994;51.606;9.988;2022-11-04T07:54:51;98073.00;;;8.28;100.00
57114;BME280;42994;51.606;9.988;2022-11-04T07:57:19;98069.34;;;8.30;100.00
57114;BME280;42994;51.606;9.988;2022-11-04T07:59:46;98064.00;;;8.30;100.00
57114;BME280;42994;51.606;9.988;2022-11-04T08:02:13;98068.94;;;8.33;100.00
57114;BME280;42994;51.606;9.988;2022-11-04T08:04:40;98076.75;;;8.34;100.00
57114;BME280;42994;51.606;9.988;2022-11-04T08:07:07;98067.69;;;8.35;100.00
57114;BME280;42994;51.606;9.988;2022-11-04T08:09:34;98062.38;;;8.35;100.00
57114;BME280;42994;51.606;9.988;2022-11-04T08:12:02;98068.31;;;8.37;100.00
57114;BME280;42994;51.606;9.988;2022-11-04T08:14:31;98065.03;;;8.35;100.00
57114;BME280;42994;51.606;9.988;2022-11-04T08:16:58;98059.09;;;8.40;100.00
57114;BME280;42994;51.606;9.988;2022-11-04T08:19:25;98071.63;;;8.39;100.00
57114;BME280;42994;51.606;9.988;2022-11-04T08:21:52;98080.47;;;8.40;100.00
57114;BME280;42994;51.606;9.988;2022-11-04T08:24:19;98078.25;;;8.43;100.00
57114;BME280;42994;51.606;9.988;2022-11-04T08:26:45;98084.22;;;8.45;100.00
57114;BME280;42994;51.606;9.988;2022-11-04T08:29:12;98094.47;;;8.49;100.00
57114;BME280;42994;51.606;9.988;2022-11-04T08:31:40;98103.94;;;8.51;100.00
57114;BME280;42994;51.606;9.988;2022-11-04T08:34:07;98090.41;;;8.53;100.00
57114;BME280;42994;51.606;9.988;2022-11-04T08:36:36;98098.00;;;8.56;100.00
57114;BME280;42994;51.606;9.988;2022-11-04T08:39:05;98100.47;;;8.57;100.00
57114;BME280;42994;51.606;9.988;2022-11-04T08:41:34;98097.41;;;8.60;100.00
57114;BME280;42994;51.606;9.988;2022-11-04T08:44:03;98092.88;;;8.61;100.00
57114;BME280;42994;51.606;9.988;2022-11-04T08:46:32;98089.19;;;8.62;100.00
57114;BME280;42994;51.606;9.988;2022-11-04T08:49:00;98089.00;;;8.63;100.00
57114;BME280;42994;51.606;9.988;2022-11-04T08:51:28;98088.75;;;8.65;100.00
57114;BME280;42994;51.606;9.988;2022-11-04T08:53:55;98084.06;;;8.67;100.00
57114;BME280;42994;51.606;9.988;2022-11-04T08:56:24;98077.69;;;8.68;100.00
57114;BME280;42994;51.606;9.988;2022-11-04T08:58:51;98074.81;;;8.70;100.00
57114;BME280;42994;51.606;9.988;2022-11-04T09:01:19;98069.28;;;8.71;100.00
57114;BME280;42994;51.606;9.988;2022-11-04T09:03:47;98069.06;;;8.73;100.00
57114;BME280;42994;51.606;9.988;2022-11-04T09:06:18;98069.69;;;8.75;100.00
57114;BME280;42994;51.606;9.988;2022-11-04T09:08:45;98076.66;;;8.76;100.00
57114;BME280;42994;51.606;9.988;2022-11-04T09:11:14;98079.13;;;8.77;100.00
57114;BME280;42994;51.606;9.988;2022-11-04T09:13:42;98077.28;;;8.78;100.00
57114;BME280;42994;51.606;9.988;2022-11-04T09:16:09;98070.31;;;8.77;100.00
57114;BME280;42994;51.606;9.988;2022-11-04T09:18:36;98073.59;;;8.79;100.00
57114;BME280;42994;51.606;9.988;2022-11-04T09:21:05;98062.91;;;8.79;100.00
57114;BME280;42994;51.606;9.988;2022-11-04T09:23:33;98068.66;;;8.82;100.00
57114;BME280;42994;51.606;9.988;2022-11-04T09:26:04;98060.44;;;8.84;100.00
57114;BME280;42994;51.606;9.988;2022-11-04T09:28:30;98063.53;;;8.88;100.00
57114;BME280;42994;51.606;9.988;2022-11-04T09:30:57;98051.81;;;8.89;100.00
57114;BME280;42994;51.606;9.988;2022-11-04T09:33:24;98045.88;;;8.93;100.00
57114;BME280;42994;51.606;9.988;2022-11-04T09:35:54;98038.06;;;8.98;100.00
57114;BME280;42994;51.606;9.988;2022-11-04T09:38:21;98043.63;;;9.03;100.00
57114;BME280;42994;51.606;9.988;2022-11-04T09:40:49;98038.03;;;9.05;100.00
57114;BME280;42994;51.606;9.988;2022-11-04T09:43:27;98035.38;;;9.12;100.00
57114;BME280;42994;51.606;9.988;2022-11-04T09:45:55;98036.00;;;9.14;100.00
57114;BME280;42994;51.606;9.988;2022-11-04T09:48:27;98039.88;;;9.18;100.00
57114;BME280;42994;51.606;9.988;2022-11-04T09:51:00;98043.19;;;9.27;100.00
57114;BME280;42994;51.606;9.988;2022-11-04T09:53:35;98062.94;;;9.19;100.00
57114;BME280;42994;51.606;9.988;2022-11-04T09:56:11;98081.22;;;9.29;100.00
57114;BME280;42994;51.606;9.988;2022-11-04T09:58:39;98093.59;;;9.30;100.00
57114;BME280;42994;51.606;9.988;2022-11-04T10:01:20;98094.19;;;9.32;100.00
57114;BME280;42994;51.606;9.988;2022-11-04T10:04:09;98099.97;;;9.35;100.00
57114;BME280;42994;51.606;9.988;2022-11-04T10:06:56;98106.34;;;9.41;100.00
57114;BME280;42994;51.606;9.988;2022-11-04T10:09:35;98105.72;;;9.32;100.00
57114;BME280;42994;51.606;9.988;2022-11-04T10:12:14;98111.88;;;9.39;100.00
57114;BME280;42994;51.606;9.988;2022-11-04T10:15:17;98108.19;;;9.40;100.00
57114;BME280;42994;51.606;9.988;2022-11-04T10:17:59;98109.63;;;9.43;100.00
57114;BME280;42994;51.606;9.988;2022-11-04T10:20:39;98116.63;;;9.44;100.00
57114;BME280;42994;51.606;9.988;2022-11-04T10:23:15;98106.97;;;9.36;100.00
57114;BME280;42994;51.606;9.988;2022-11-04T10:25:47;98100.16;;;9.40;100.00
57114;BME280;42994;51.606;9.988;2022-11-04T10:28:18;98109.00;;;9.41;100.00
57114;BME280;42994;51.606;9.988;2022-11-04T10:30:47;98106.94;;;9.50;100.00
57114;BME280;42994;51.606;9.988;2022-11-04T10:33:25;98102.81;;;9.47;100.00
57114;BME280;42994;51.606;9.988;2022-11-04T10:35:56;98097.25;;;9.49;100.00
57114;BME280;42994;51.606;9.988;2022-11-04T10:38:32;98090.69;;;9.38;100.00
57114;BME280;42994;51.606;9.988;2022-11-04T10:43:39;98087.19;;;9.44;100.00
57114;BME280;42994;51.606;9.988;2022-11-04T10:46:21;98085.34;;;9.45;100.00
57114;BME280;42994;51.606;9.988;2022-11-04T10:49:01;98075.66;;;9.43;100.00
57114;BME280;42994;51.606;9.988;2022-11-04T10:51:31;98081.41;;;9.54;100.00
57114;BME280;42994;51.606;9.988;2022-11-04T10:53:59;98079.78;;;9.46;100.00
57114;BME280;42994;51.606;9.988;2022-11-04T10:56:33;98090.09;;;9.49;100.00
57114;BME280;42994;51.606;9.988;2022-11-04T10:59:15;98082.22;;;9.54;100.00
57114;BME280;42994;51.606;9.988;2022-11-04T11:01:47;98094.19;;;9.52;100.00
57114;BME280;42994;51.606;9.988;2022-11-04T11:04:40;98092.31;;;9.52;100.00
57114;BME280;42994;51.606;9.988;2022-11-04T11:07:11;98099.53;;;9.52;100.00
57114;BME280;42994;51.606;9.988;2022-11-04T11:09:50;98098.72;;;9.51;100.00
57114;BME280;42994;51.606;9.988;2022-11-04T11:12:19;98103.63;;;9.54;100.00
57114;BME280;42994;51.606;9.988;2022-11-04T11:14:56;98101.16;;;9.59;100.00
57114;BME280;42994;51.606;9.988;2022-11-04T11:17:25;98099.50;;;9.65;100.00
57114;BME280;42994;51.606;9.988;2022-11-04T11:20:02;98101.78;;;9.68;100.00
57114;BME280;42994;51.606;9.988;2022-11-04T11:22:44;98104.25;;;9.70;100.00
57114;BME280;42994;51.606;9.988;2022-11-04T11:25:25;98104.22;;;9.76;100.00
57114;BME280;42994;51.606;9.988;2022-11-04T11:27:56;98107.34;;;9.73;100.00
57114;BME280;42994;51.606;9.988;2022-11-04T11:30:27;98100.13;;;9.74;100.00
57114;BME280;42994;51.606;9.988;2022-11-04T11:33:02;98099.09;;;9.75;100.00
57114;BME280;42994;51.606;9.988;2022-11-04T11:35:35;98095.41;;;9.69;100.00
57114;BME280;42994;51.606;9.988;2022-11-04T11:38:15;98091.88;;;9.75;100.00
57114;BME280;42994;51.606;9.988;2022-11-04T11:40:45;98095.78;;;9.79;100.00
57114;BME280;42994;51.606;9.988;2022-11-04T11:43:22;98091.66;;;9.84;100.00
57114;BME280;42994;51.606;9.988;2022-11-04T11:45:54;98078.47;;;9.89;100.00
57114;BME280;42994;51.606;9.988;2022-11-04T11:48:29;98080.47;;;10.07;100.00
57114;BME280;42994;51.606;9.988;2022-11-04T11:50:59;98075.31;;;10.12;100.00
57114;BME280;42994;51.606;9.988;2022-11-04T11:53:27;98088.69;;;10.18;100.00
57114;BME280;42994;51.606;9.988;2022-11-04T11:56:12;98084.34;;;10.24;100.00
57114;BME280;42994;51.606;9.988;2022-11-04T11:58:59;98084.34;;;10.17;100.00
57114;BME280;42994;51.606;9.988;2022-11-04T12:02:18;98087.03;;;10.17;100.00
57114;BME280;42994;51.606;9.988;2022-11-04T12:04:52;98092.41;;;10.11;100.00
57114;BME280;42994;51.606;9.988;2022-11-04T12:07:37;98090.72;;;10.16;100.00
57114;BME280;42994;51.606;9.988;2022-11-04T12:10:14;98095.28;;;10.16;100.00
57114;BME280;42994;51.606;9.988;2022-11-04T12:12:59;98103.75;;;10.06;100.00
57114;BME280;42994;51.606;9.988;2022-11-04T12:15:49;98104.16;;;10.03;100.00
57114;BME280;42994;51.606;9.988;2022-11-04T12:18:38;98104.38;;;10.08;100.00
57114;BME280;42994;51.606;9.988;2022-11-04T12:21:12;98104.16;;;10.10;100.00
57114;BME280;42994;51.606;9.988;2022-11-04T12:25:08;98115.47;;;10.12;100.00
57114;BME280;42994;51.606;9.988;2022-11-04T12:27:50;98117.97;;;10.13;100.00
57114;BME280;42994;51.606;9.988;2022-11-04T12:31:14;98131.91;;;10.22;100.00
57114;BME280;42994;51.606;9.988;2022-11-04T12:34:42;98138.53;;;10.19;100.00
57114;BME280;42994;51.606;9.988;2022-11-04T12:42:49;98136.28;;;10.10;100.00
57114;BME280;42994;51.606;9.988;2022-11-04T12:45:27;98135.66;;;10.14;100.00
57114;BME280;42994;51.606;9.988;2022-11-04T12:48:03;98131.56;;;10.05;100.00
57114;BME280;42994;51.606;9.988;2022-11-04T12:50:45;98127.00;;;10.06;100.00
57114;BME280;42994;51.606;9.988;2022-11-04T12:56:36;98130.34;;;10.08;100.00
57114;BME280;42994;51.606;9.988;2022-11-04T12:59:28;98127.00;;;10.12;100.00
57114;BME280;42994;51.606;9.988;2022-11-04T13:02:12;98121.25;;;10.09;100.00
57114;BME280;42994;51.606;9.988;2022-11-04T13:04:54;98118.16;;;10.12;100.00
57114;BME280;42994;51.606;9.988;2022-11-04T13:11:25;98113.81;;;10.11;100.00
57114;BME280;42994;51.606;9.988;2022-11-04T13:14:30;98115.06;;;10.15;100.00
57114;BME280;42994;51.606;9.988;2022-11-04T13:28:00;98115.91;;;10.09;100.00
57114;BME280;42994;51.606;9.988;2022-11-04T13:34:48;98122.06;;;10.09;100.00
57114;BME280;42994;51.606;9.988;2022-11-04T13:37:23;98134.44;;;10.10;100.00
57114;BME280;42994;51.606;9.988;2022-11-04T13:41:08;98138.16;;;10.03;100.00
57114;BME280;42994;51.606;9.988;2022-11-04T13:44:42;98134.88;;;10.00;100.00
57114;BME280;42994;51.606;9.988;2022-11-04T13:58:51;98156.91;;;9.96;100.00
57114;BME280;42994;51.606;9.988;2022-11-04T14:01:54;98161.84;;;9.99;100.00
57114;BME280;42994;51.606;9.988;2022-11-04T14:09:30;98175.66;;;9.96;100.00
57114;BME280;42994;51.606;9.988;2022-11-04T14:12:41;98173.59;;;9.98;100.00
57114;BME280;42994;51.606;9.988;2022-11-04T14:22:44;98195.63;;;9.93;100.00
57114;BME280;42994;51.606;9.988;2022-11-04T14:26:11;98207.38;;;9.92;100.00
57114;BME280;42994;51.606;9.988;2022-11-04T14:28:44;98210.03;;;9.92;100.00